Time;durP1;ratioP1;P1;durP2;ratioP2;P2;SDS_P1;SDS_P2;PMS_P1;PMS_P2;Temp;Humidity;BMP_temperature;BMP_pressure;BME280_temperature;BME280_humidity;BME280_pressure;Samples;Min_cycle;Max_cycle;Signal;HPM_P1;HPM_P2
2022/11/05 00:17:29;;;;;;;13.85;9.20;;;;;;;;;;5014545;28;7516334;-78
2022/11/05 00:20:00;;;;;;;16.98;9.30;;;;;;;;;;5286008;28;20025;-77
2022/11/05 00:25:21;;;;;;;14.48;9.15;;;;;;;;;;5299314;28;20040;-78
2022/11/05 00:27:52;;;;;;;12.63;8.80;;;;;;;;;;5287297;28;20074;-78
2022/11/05 00:30:24;;;;;;;11.73;8.55;;;;;;;;;;5281459;28;20061;-77
2022/11/05 00:32:59;;;;;;;12.98;8.48;;;;;;;;;;5288722;28;20112;-78
2022/11/05 00:35:30;;;;;;;12.65;9.25;;;;;;;;;;5293716;28;20467;-78
2022/11/05 00:38:01;;;;;;;17.53;8.20;;;;;;;;;;5277617;28;20025;-79
2022/11/05 00:40:32;;;;;;;12.63;7.70;;;;;;;;;;5281716;28;20033;-78
2022/11/05 00:45:53;;;;;;;11.38;6.50;;;;;;;;;;5284737;28;20033;-79
2022/11/05 00:51:15;;;;;;;7.15;6.40;;;;;;;;;;5286571;28;20036;-78
2022/11/05 00:53:46;;;;;;;12.43;8.07;;;;;;;;;;5282579;28;20044;-78
2022/11/05 00:56:17;;;;;;;10.37;7.37;;;;;;;;;;5277983;28;20037;-78
2022/11/05 00:58:48;;;;;;;285.60;21.55;;;;;;;;;;5281670;28;20288;-78
2022/11/05 01:01:19;;;;;;;12.70;7.43;;;;;;;;;;5264404;28;20468;-79
2022/11/05 01:03:51;;;;;;;9.65;7.10;;;;;;;;;;5283295;28;20285;-78
2022/11/05 01:06:22;;;;;;;510.10;32.63;;;;;;;;;;5292445;28;20021;-79
2022/11/05 01:08:54;;;;;;;12.15;7.03;;;;;;;;;;5269167;28;20288;-78
2022/11/05 01:11:31;;;;;;;13.07;8.57;;;;;;;;;;5279764;28;20024;-78
2022/11/05 01:14:04;;;;;;;13.55;8.48;;;;;;;;;;5290903;28;20064;-78
2022/11/05 01:16:36;;;;;;;13.52;9.50;;;;;;;;;;5295284;28;20112;-78
2022/11/05 01:19:08;;;;;;;14.23;10.43;;;;;;;;;;5282345;28;20130;-78
2022/11/05 01:21:39;;;;;;;16.00;10.25;;;;;;;;;;5286073;28;20477;-78
2022/11/05 01:24:11;;;;;;;18.05;9.63;;;;;;;;;;5293790;28;20041;-78
2022/11/05 01:26:42;;;;;;;15.57;8.32;;;;;;;;;;5293442;28;20060;-78
2022/11/05 01:29:13;;;;;;;17.20;9.00;;;;;;;;;;5269603;28;20032;-78
2022/11/05 01:31:45;;;;;;;12.85;8.70;;;;;;;;;;5291877;28;20423;-78
2022/11/05 01:34:16;;;;;;;17.77;10.20;;;;;;;;;;5294143;28;20107;-78
2022/11/05 01:36:47;;;;;;;16.33;10.20;;;;;;;;;;5296558;28;20151;-78
2022/11/05 01:39:18;;;;;;;12.27;8.82;;;;;;;;;;5290425;28;20280;-78
2022/11/05 01:41:49;;;;;;;14.30;9.82;;;;;;;;;;5288093;28;20039;-78
2022/11/05 01:44:39;;;;;;;18.23;10.50;;;;;;;;;;5281729;28;20025;-78
2022/11/05 01:47:19;;;;;;;15.10;10.50;;;;;;;;;;5266906;28;20068;-78
2022/11/05 01:49:50;;;;;;;15.88;10.63;;;;;;;;;;5279093;28;20040;-79
2022/11/05 01:52:22;;;;;;;16.73;9.38;;;;;;;;;;5276027;28;20388;-78
2022/11/05 01:54:54;;;;;;;17.23;9.73;;;;;;;;;;5265267;28;20029;-78
2022/11/05 01:57:25;;;;;;;19.73;10.48;;;;;;;;;;5265066;28;20040;-78
2022/11/05 01:59:58;;;;;;;20.00;10.90;;;;;;;;;;5283462;28;20032;-78
2022/11/05 02:02:29;;;;;;;19.52;10.80;;;;;;;;;;5278026;28;20052;-78
2022/11/05 02:05:04;;;;;;;21.38;10.93;;;;;;;;;;5281766;28;20029;-78
2022/11/05 02:07:35;;;;;;;20.50;12.10;;;;;;;;;;5289775;28;20051;-78
2022/11/05 02:10:07;;;;;;;22.10;12.50;;;;;;;;;;5287479;28;20194;-78
2022/11/05 02:12:40;;;;;;;27.92;12.88;;;;;;;;;;5295757;28;20544;-78
2022/11/05 02:15:12;;;;;;;22.45;12.90;;;;;;;;;;5286700;28;20055;-78
2022/11/05 02:17:53;;;;;;;17.60;11.73;;;;;;;;;;5272058;28;20036;-78
2022/11/05 02:20:37;;;;;;;17.88;12.63;;;;;;;;;;5281775;28;20025;-78
2022/11/05 02:23:20;;;;;;;22.77;13.75;;;;;;;;;;5295167;28;20104;-78
2022/11/05 02:26:12;;;;;;;23.83;14.57;;;;;;;;;;5288018;28;20150;-78
2022/11/05 02:28:55;;;;;;;20.60;13.02;;;;;;;;;;5251463;28;20405;-78
2022/11/05 02:31:29;;;;;;;19.92;12.50;;;;;;;;;;5286570;28;20036;-78
2022/11/05 02:34:10;;;;;;;29.23;14.40;;;;;;;;;;5295523;28;20375;-78
2022/11/05 02:36:47;;;;;;;25.17;14.35;;;;;;;;;;5284259;28;20156;-78
2022/11/05 02:39:19;;;;;;;26.73;14.43;;;;;;;;;;5289495;28;20023;-78
2022/11/05 02:41:53;;;;;;;23.80;15.20;;;;;;;;;;5291304;28;20037;-78
2022/11/05 02:44:28;;;;;;;25.80;15.23;;;;;;;;;;5296959;28;20317;-79
2022/11/05 02:47:03;;;;;;;23.92;14.65;;;;;;;;;;5288506;28;20045;-78
2022/11/05 02:49:45;;;;;;;27.13;15.75;;;;;;;;;;5268936;28;20034;-78
2022/11/05 02:52:23;;;;;;;26.85;16.75;;;;;;;;;;5273628;28;20029;-79
2022/11/05 02:55:02;;;;;;;27.85;16.45;;;;;;;;;;5274108;28;20500;-78
2022/11/05 02:57:34;;;;;;;25.33;14.13;;;;;;;;;;5276865;28;20112;-78
2022/11/05 03:00:07;;;;;;;26.33;15.70;;;;;;;;;;5264860;28;20112;-78
2022/11/05 03:02:38;;;;;;;26.33;15.77;;;;;;;;;;5271910;28;20040;-79
2022/11/05 03:05:09;;;;;;;30.80;16.80;;;;;;;;;;5273614;28;20082;-78
2022/11/05 03:07:49;;;;;;;24.50;14.25;;;;;;;;;;5265174;28;20059;-78
2022/11/05 03:10:31;;;;;;;26.27;16.67;;;;;;;;;;5269083;28;20029;-78
2022/11/05 03:13:16;;;;;;;21.40;15.15;;;;;;;;;;5275107;28;20041;-78
2022/11/05 03:15:57;;;;;;;25.20;16.63;;;;;;;;;;5273405;28;20055;-78
2022/11/05 03:18:33;;;;;;;29.25;18.42;;;;;;;;;;5259776;28;20022;-78
2022/11/05 03:21:19;;;;;;;32.28;18.45;;;;;;;;;;5266515;28;20097;-78
2022/11/05 03:23:50;;;;;;;41.75;23.48;;;;;;;;;;5274230;28;20421;-79
2022/11/05 03:26:27;;;;;;;31.02;20.63;;;;;;;;;;5269111;28;20045;-78
2022/11/05 03:29:01;;;;;;;37.35;25.30;;;;;;;;;;5272701;28;20025;-78
2022/11/05 03:31:33;;;;;;;39.80;25.80;;;;;;;;;;5263323;28;20115;-78
2022/11/05 03:34:05;;;;;;;45.50;26.05;;;;;;;;;;5278239;28;20025;-78
2022/11/05 03:36:40;;;;;;;44.80;27.95;;;;;;;;;;5273477;28;20033;-78
2022/11/05 03:39:16;;;;;;;37.92;26.48;;;;;;;;;;5272127;28;20482;-79
2022/11/05 03:41:49;;;;;;;38.28;27.00;;;;;;;;;;5266822;28;20477;-78
2022/11/05 03:44:23;;;;;;;40.10;27.17;;;;;;;;;;5262316;28;20028;-78
2022/11/05 03:46:57;;;;;;;40.35;28.25;;;;;;;;;;5271428;28;20056;-78
2022/11/05 03:49:32;;;;;;;46.42;29.80;;;;;;;;;;5283153;28;20021;-78
2022/11/05 03:52:09;;;;;;;45.70;28.53;;;;;;;;;;5287260;28;20415;-78
2022/11/05 03:54:41;;;;;;;43.30;28.95;;;;;;;;;;5290466;28;20030;-78
2022/11/05 03:57:27;;;;;;;46.80;28.63;;;;;;;;;;5287976;28;20037;-78
2022/11/05 03:59:58;;;;;;;45.80;28.52;;;;;;;;;;5285727;28;20075;-78
2022/11/05 04:02:30;;;;;;;41.80;30.27;;;;;;;;;;5278273;28;20033;-78
2022/11/05 04:05:01;;;;;;;54.17;31.83;;;;;;;;;;5276329;28;20300;-78
2022/11/05 04:13:24;;;;;;;46.65;32.08;;;;;;;;;;5296056;28;20033;-78
2022/11/05 04:18:45;;;;;;;43.58;31.02;;;;;;;;;;5292412;28;20029;-78
2022/11/05 04:24:07;;;;;;;45.38;29.23;;;;;;;;;;5296239;28;20040;-80
2022/11/05 04:26:40;;;;;;;43.55;29.92;;;;;;;;;;5298936;28;20035;-78
2022/11/05 04:32:01;;;;;;;52.60;31.05;;;;;;;;;;5287928;28;20036;-80
2022/11/05 04:34:33;;;;;;;48.72;32.90;;;;;;;;;;5297279;28;20071;-80
2022/11/05 04:37:04;;;;;;;51.70;33.65;;;;;;;;;;5296224;28;20079;-80
2022/11/05 04:39:35;;;;;;;49.42;31.48;;;;;;;;;;5290248;28;21012;-77
2022/11/05 04:42:06;;;;;;;47.47;30.38;;;;;;;;;;5289167;28;20037;-80
2022/11/05 04:44:37;;;;;;;50.43;31.10;;;;;;;;;;5293924;28;20033;-81
2022/11/05 04:47:09;;;;;;;45.83;30.70;;;;;;;;;;5285072;28;20715;-80
2022/11/05 04:49:40;;;;;;;47.65;31.65;;;;;;;;;;5290874;28;20493;-78
2022/11/05 04:52:11;;;;;;;50.10;32.33;;;;;;;;;;5296522;28;20102;-79
2022/11/05 04:54:42;;;;;;;44.30;31.63;;;;;;;;;;5291737;28;20017;-78
2022/11/05 04:57:14;;;;;;;53.33;33.97;;;;;;;;;;5284429;28;20461;-78
2022/11/05 04:59:48;;;;;;;54.35;33.92;;;;;;;;;;5283893;28;20037;-79
2022/11/05 05:02:19;;;;;;;48.67;33.13;;;;;;;;;;5290767;28;20025;-79
2022/11/05 05:04:51;;;;;;;53.40;33.33;;;;;;;;;;5275315;28;20032;-78
2022/11/05 05:07:22;;;;;;;55.78;36.35;;;;;;;;;;5286838;28;20071;-78
2022/11/05 05:09:53;;;;;;;58.58;34.13;;;;;;;;;;5291183;28;20078;-78
2022/11/05 05:12:25;;;;;;;54.42;32.30;;;;;;;;;;5293381;28;20024;-78
2022/11/05 05:14:56;;;;;;;50.33;34.27;;;;;;;;;;5275477;28;20033;-78
2022/11/05 05:17:27;;;;;;;52.17;32.90;;;;;;;;;;5286542;28;20292;-79
2022/11/05 05:22:54;;;;;;;48.00;31.38;;;;;;;;;;5283639;28;20567;-78
2022/11/05 05:25:25;;;;;;;51.05;34.13;;;;;;;;;;5288232;28;20095;-78
2022/11/05 05:27:57;;;;;;;51.37;33.17;;;;;;;;;;5292003;28;20029;-78
2022/11/05 05:30:28;;;;;;;46.97;28.92;;;;;;;;;;5273514;28;20031;-79
2022/11/05 05:33:03;;;;;;;52.22;33.47;;;;;;;;;;5273138;28;20552;-79
2022/11/05 05:35:34;;;;;;;54.47;33.15;;;;;;;;;;5280169;28;20037;-78
2022/11/05 05:38:05;;;;;;;47.05;29.73;;;;;;;;;;5281777;28;20106;-78
2022/11/05 05:40:36;;;;;;;61.35;34.28;;;;;;;;;;5296588;28;20439;-78
2022/11/05 05:43:08;;;;;;;58.90;36.00;;;;;;;;;;5289746;28;20059;-78
2022/11/05 05:45:39;;;;;;;51.30;31.20;;;;;;;;;;5294289;28;20020;-78
2022/11/05 05:48:10;;;;;;;50.85;30.33;;;;;;;;;;5285737;28;20620;-79
2022/11/05 05:50:41;;;;;;;62.25;34.63;;;;;;;;;;5293396;28;20040;-78
2022/11/05 05:53:12;;;;;;;55.55;34.78;;;;;;;;;;5273408;28;20041;-79
2022/11/05 05:55:44;;;;;;;54.83;33.90;;;;;;;;;;5293512;28;20498;-78
2022/11/05 05:58:15;;;;;;;60.53;33.40;;;;;;;;;;5288595;28;20653;-78
2022/11/05 06:00:46;;;;;;;49.08;32.53;;;;;;;;;;5290449;28;20337;-79
2022/11/05 06:03:17;;;;;;;47.72;31.63;;;;;;;;;;5292085;28;20094;-79
2022/11/05 06:05:49;;;;;;;44.28;29.30;;;;;;;;;;5292462;28;20032;-79
2022/11/05 06:08:20;;;;;;;42.65;30.13;;;;;;;;;;5289578;28;20840;-78
2022/11/05 06:10:51;;;;;;;47.72;29.45;;;;;;;;;;5284112;28;20025;-78
2022/11/05 06:13:22;;;;;;;42.40;27.35;;;;;;;;;;5284946;28;20033;-78
2022/11/05 06:15:58;;;;;;;46.03;29.98;;;;;;;;;;5291584;28;20087;-77
2022/11/05 06:18:30;;;;;;;43.63;28.60;;;;;;;;;;5295375;28;20460;-78
2022/11/05 06:21:02;;;;;;;44.65;28.10;;;;;;;;;;5292622;28;20050;-77
2022/11/05 06:23:34;;;;;;;47.03;29.42;;;;;;;;;;5284081;28;20059;-77
2022/11/05 06:26:09;;;;;;;45.17;29.67;;;;;;;;;;5294235;28;20033;-78
2022/11/05 06:28:41;;;;;;;45.20;28.30;;;;;;;;;;5292179;28;20442;-78
2022/11/05 06:31:13;;;;;;;42.05;26.92;;;;;;;;;;5295376;28;20106;-78
2022/11/05 06:33:44;;;;;;;51.92;28.20;;;;;;;;;;5291311;28;20025;-78
2022/11/05 06:36:16;;;;;;;38.97;27.80;;;;;;;;;;5292920;28;20388;-78
2022/11/05 06:38:47;;;;;;;40.63;28.00;;;;;;;;;;5291351;28;20468;-77
2022/11/05 06:41:19;;;;;;;44.45;29.77;;;;;;;;;;5286852;28;20095;-77
2022/11/05 06:43:50;;;;;;;48.47;28.67;;;;;;;;;;5272924;28;20384;-78
2022/11/05 06:46:21;;;;;;;47.88;31.08;;;;;;;;;;5292359;28;20049;-77
2022/11/05 06:48:52;;;;;;;44.63;27.97;;;;;;;;;;5286872;28;20111;-78
2022/11/05 06:51:24;;;;;;;42.38;27.83;;;;;;;;;;5292460;28;20659;-78
2022/11/05 06:53:55;;;;;;;43.78;28.77;;;;;;;;;;5292847;28;20070;-79
2022/11/05 06:56:26;;;;;;;48.80;28.70;;;;;;;;;;5282764;28;20374;-79
2022/11/05 06:58:58;;;;;;;43.35;26.83;;;;;;;;;;5276214;28;20554;-79
2022/11/05 07:01:29;;;;;;;45.35;27.85;;;;;;;;;;5282959;28;20021;-79
2022/11/05 07:04:00;;;;;;;48.50;28.25;;;;;;;;;;5284004;28;20040;-79
2022/11/05 07:06:31;;;;;;;43.35;26.65;;;;;;;;;;5292599;28;20519;-78
2022/11/05 07:09:03;;;;;;;43.78;28.58;;;;;;;;;;5284253;28;20028;-77
2022/11/05 07:11:34;;;;;;;43.53;28.10;;;;;;;;;;5284391;28;20373;-78
2022/11/05 07:14:05;;;;;;;51.53;30.20;;;;;;;;;;5284279;28;20029;-78
2022/11/05 07:16:36;;;;;;;45.33;29.33;;;;;;;;;;5284181;28;20385;-77
2022/11/05 07:19:08;;;;;;;47.33;29.55;;;;;;;;;;5283675;28;20366;-77
2022/11/05 07:21:39;;;;;;;44.25;27.08;;;;;;;;;;5282150;28;20029;-78
2022/11/05 07:24:11;;;;;;;43.03;29.10;;;;;;;;;;5281284;28;20104;-77
2022/11/05 07:26:42;;;;;;;47.67;32.08;;;;;;;;;;5284568;28;20036;-78
2022/11/05 07:29:13;;;;;;;71.97;39.50;;;;;;;;;;5260003;28;20396;-78
2022/11/05 07:31:45;;;;;;;151.10;52.87;;;;;;;;;;5281816;28;20029;-78
2022/11/05 07:34:17;;;;;;;564.63;97.47;;;;;;;;;;5283446;28;20659;-78
2022/11/05 07:36:48;;;;;;;180.27;53.33;;;;;;;;;;5284744;28;20037;-78
2022/11/05 07:39:19;;;;;;;1223.50;150.52;;;;;;;;;;5284264;28;20263;-79
2022/11/05 07:41:51;;;;;;;614.80;83.70;;;;;;;;;;5269556;28;20154;-78
2022/11/05 07:44:22;;;;;;;796.15;105.63;;;;;;;;;;5295509;28;20078;-78
2022/11/05 07:46:53;;;;;;;611.28;85.95;;;;;;;;;;5290409;28;20057;-78
2022/11/05 07:49:25;;;;;;;38.33;25.88;;;;;;;;;;5268645;28;20392;-78
2022/11/05 07:51:56;;;;;;;29.40;21.50;;;;;;;;;;5280857;28;20044;-79
2022/11/05 07:54:27;;;;;;;23.13;17.67;;;;;;;;;;5280731;28;20743;-78
2022/11/05 07:57:00;;;;;;;20.55;14.43;;;;;;;;;;5270233;28;20549;-79
2022/11/05 07:59:31;;;;;;;19.17;12.85;;;;;;;;;;5277075;28;20119;-79
2022/11/05 08:02:02;;;;;;;16.05;10.57;;;;;;;;;;5281212;28;20454;-78
2022/11/05 08:04:33;;;;;;;13.82;9.95;;;;;;;;;;5265305;28;20017;-78
2022/11/05 08:07:05;;;;;;;10.17;8.73;;;;;;;;;;5282257;28;20061;-79
2022/11/05 08:09:36;;;;;;;11.80;7.03;;;;;;;;;;5281630;28;20025;-79
2022/11/05 08:12:07;;;;;;;15.65;8.05;;;;;;;;;;5284237;28;20287;-78
2022/11/05 08:14:38;;;;;;;15.70;8.20;;;;;;;;;;5283923;28;20037;-78
2022/11/05 08:17:09;;;;;;;12.18;8.55;;;;;;;;;;5284586;28;20112;-78
2022/11/05 08:19:41;;;;;;;15.20;8.67;;;;;;;;;;5283182;28;20036;-78
2022/11/05 08:22:12;;;;;;;13.43;10.00;;;;;;;;;;5282340;28;20045;-79
2022/11/05 08:24:43;;;;;;;18.47;9.80;;;;;;;;;;5278790;28;20128;-79
2022/11/05 08:27:14;;;;;;;18.17;11.30;;;;;;;;;;5282146;28;20340;-78
2022/11/05 08:29:46;;;;;;;17.08;11.13;;;;;;;;;;5266702;28;20033;-78
2022/11/05 08:32:17;;;;;;;17.53;11.83;;;;;;;;;;5278815;28;20541;-79
2022/11/05 08:34:48;;;;;;;20.58;13.25;;;;;;;;;;5285813;28;20332;-79
2022/11/05 08:37:19;;;;;;;19.27;12.98;;;;;;;;;;5267406;28;20033;-78
2022/11/05 08:39:51;;;;;;;18.35;13.18;;;;;;;;;;5284274;28;20489;-78
2022/11/05 08:42:22;;;;;;;18.70;12.48;;;;;;;;;;5275945;28;20029;-79
2022/11/05 08:44:53;;;;;;;18.65;13.25;;;;;;;;;;5293629;28;20048;-78
2022/11/05 08:47:25;;;;;;;16.92;13.85;;;;;;;;;;5291699;28;20069;-78
2022/11/05 08:49:56;;;;;;;20.30;13.18;;;;;;;;;;5286421;28;20036;-78
2022/11/05 08:52:27;;;;;;;22.98;13.32;;;;;;;;;;5271877;28;20440;-78
2022/11/05 08:55:02;;;;;;;20.55;12.93;;;;;;;;;;5284389;28;20029;-79
2022/11/05 08:57:33;;;;;;;17.05;12.48;;;;;;;;;;5284335;28;20071;-79
2022/11/05 09:00:05;;;;;;;23.88;13.65;;;;;;;;;;5284782;28;20055;-79
2022/11/05 09:02:36;;;;;;;19.50;12.70;;;;;;;;;;5284947;28;20029;-79
2022/11/05 09:05:07;;;;;;;17.53;12.77;;;;;;;;;;5262036;28;20021;-79
2022/11/05 09:07:38;;;;;;;18.23;11.80;;;;;;;;;;5275028;28;20256;-79
2022/11/05 09:10:10;;;;;;;14.75;11.32;;;;;;;;;;5267682;28;20028;-79
2022/11/05 09:12:41;;;;;;;21.75;13.05;;;;;;;;;;5283271;28;20094;-79
2022/11/05 09:15:12;;;;;;;15.73;12.40;;;;;;;;;;5270754;28;20429;-79
2022/11/05 09:17:43;;;;;;;16.30;11.80;;;;;;;;;;5269841;28;20410;-78
2022/11/05 09:20:15;;;;;;;14.90;11.13;;;;;;;;;;5284045;28;20029;-79
2022/11/05 09:22:46;;;;;;;15.25;11.50;;;;;;;;;;5285150;28;20401;-79
2022/11/05 09:25:17;;;;;;;18.50;11.38;;;;;;;;;;5265474;28;20123;-79
2022/11/05 09:27:48;;;;;;;14.52;10.00;;;;;;;;;;5283461;28;20454;-79
2022/11/05 09:30:20;;;;;;;12.83;10.07;;;;;;;;;;5282405;28;20036;-79
2022/11/05 09:32:51;;;;;;;11.55;9.95;;;;;;;;;;5285280;28;20276;-79
2022/11/05 09:35:22;;;;;;;12.45;7.30;;;;;;;;;;5268464;28;20025;-78
2022/11/05 09:37:53;;;;;;;10.38;5.78;;;;;;;;;;5285007;28;20087;-79
2022/11/05 09:40:29;;;;;;;9.13;5.53;;;;;;;;;;5283770;28;20031;-79
2022/11/05 09:43:01;;;;;;;7.90;5.25;;;;;;;;;;5284986;28;20267;-79
2022/11/05 09:45:34;;;;;;;6.93;4.85;;;;;;;;;;5281649;28;20020;-79
2022/11/05 09:48:13;;;;;;;8.50;5.25;;;;;;;;;;5283118;28;20049;-79
2022/11/05 09:50:45;;;;;;;7.15;5.22;;;;;;;;;;5280114;28;21812;-79
2022/11/05 09:53:17;;;;;;;8.85;4.97;;;;;;;;;;5281320;28;20028;-79
2022/11/05 09:55:50;;;;;;;6.85;4.47;;;;;;;;;;5283090;28;20029;-80
2022/11/05 09:58:30;;;;;;;5.75;4.60;;;;;;;;;;5281049;28;20029;-80
2022/11/05 10:01:03;;;;;;;4.30;3.65;;;;;;;;;;5278346;28;20059;-80
2022/11/05 10:03:38;;;;;;;12.00;4.88;;;;;;;;;;5283453;28;20025;-80
2022/11/05 10:06:12;;;;;;;6.50;4.32;;;;;;;;;;5284047;28;20025;-80
2022/11/05 10:08:46;;;;;;;8.35;5.25;;;;;;;;;;5266776;28;20072;-79
2022/11/05 10:11:19;;;;;;;11.70;5.43;;;;;;;;;;5264332;28;20121;-80
2022/11/05 10:13:53;;;;;;;6.88;5.00;;;;;;;;;;5265312;28;20029;-79
2022/11/05 10:16:27;;;;;;;8.70;5.72;;;;;;;;;;5286565;28;20116;-79
2022/11/05 10:19:08;;;;;;;7.32;5.20;;;;;;;;;;5265472;28;20022;-78
2022/11/05 10:21:40;;;;;;;9.35;5.78;;;;;;;;;;5267704;28;20504;-79
2022/11/05 10:24:12;;;;;;;8.98;5.50;;;;;;;;;;5284065;28;20021;-78
2022/11/05 10:26:49;;;;;;;8.63;5.22;;;;;;;;;;5284354;28;20811;-78
2022/11/05 10:29:31;;;;;;;10.43;6.22;;;;;;;;;;5283395;28;20029;-80
2022/11/05 10:32:04;;;;;;;9.48;5.63;;;;;;;;;;5264669;28;20112;-78
2022/11/05 10:34:37;;;;;;;7.85;5.53;;;;;;;;;;5281914;28;20027;-77
2022/11/05 10:37:09;;;;;;;8.77;6.00;;;;;;;;;;5281035;28;20028;-78
2022/11/05 10:39:40;;;;;;;9.27;6.47;;;;;;;;;;5282445;28;20397;-78
2022/11/05 10:42:24;;;;;;;10.27;5.90;;;;;;;;;;5283010;28;20037;-78
2022/11/05 10:45:00;;;;;;;8.25;5.85;;;;;;;;;;5280312;28;20048;-78
2022/11/05 10:47:32;;;;;;;;;;;;;;;;;;5281882;28;20041;-78
2022/11/05 10:50:07;;;;;;;12.55;6.63;;;;;;;;;;5282268;28;20292;-78
2022/11/05 10:52:50;;;;;;;11.70;6.60;;;;;;;;;;5282007;28;20033;-78
2022/11/05 10:55:24;;;;;;;10.93;7.07;;;;;;;;;;5281017;28;20071;-78
2022/11/05 10:58:27;;;;;;;12.35;6.63;;;;;;;;;;5266818;28;20773;-78
2022/11/05 11:01:16;;;;;;;11.05;6.72;;;;;;;;;;5263260;28;20037;-78
2022/11/05 11:03:52;;;;;;;11.00;6.88;;;;;;;;;;5280887;28;20029;-78
2022/11/05 11:06:23;;;;;;;11.25;7.47;;;;;;;;;;5283111;28;20036;-78
2022/11/05 11:08:55;;;;;;;13.07;6.78;;;;;;;;;;5267996;28;20067;-77
2022/11/05 11:11:37;;;;;;;11.88;6.88;;;;;;;;;;5285633;28;20469;-77
2022/11/05 11:14:11;;;;;;;16.38;7.75;;;;;;;;;;5285216;28;20025;-78
2022/11/05 11:16:46;;;;;;;9.73;6.57;;;;;;;;;;5267034;28;20047;-78
2022/11/05 11:19:20;;;;;;;13.18;6.72;;;;;;;;;;5284695;28;20110;-77
2022/11/05 11:22:03;;;;;;;12.43;6.55;;;;;;;;;;5283860;28;20103;-78
2022/11/05 11:24:52;;;;;;;11.30;6.50;;;;;;;;;;5265801;28;20037;-78
2022/11/05 11:27:26;;;;;;;9.63;6.15;;;;;;;;;;5284948;28;20078;-78
2022/11/05 11:30:01;;;;;;;8.68;5.55;;;;;;;;;;5257198;28;20079;-78
2022/11/05 11:32:34;;;;;;;10.95;5.43;;;;;;;;;;5245211;28;20033;-78
2022/11/05 11:35:07;;;;;;;10.00;5.07;;;;;;;;;;5275746;28;20030;-78
2022/11/05 11:37:40;;;;;;;11.50;4.93;;;;;;;;;;5266089;28;20037;-78
2022/11/05 11:40:15;;;;;;;7.38;4.38;;;;;;;;;;5283024;28;20029;-78
2022/11/05 11:42:48;;;;;;;8.30;4.32;;;;;;;;;;5278217;28;20071;-79
2022/11/05 11:45:22;;;;;;;6.05;3.67;;;;;;;;;;5263740;28;20017;-79
2022/11/05 11:47:54;;;;;;;7.90;4.53;;;;;;;;;;5263350;28;20053;-79
2022/11/05 11:50:41;;;;;;;6.25;3.85;;;;;;;;;;5282745;28;20536;-80
2022/11/05 11:53:21;;;;;;;8.18;4.55;;;;;;;;;;5284994;28;20021;-79
2022/11/05 11:56:12;;;;;;;10.05;4.10;;;;;;;;;;5284332;28;20021;-79
2022/11/05 11:58:43;;;;;;;9.63;4.07;;;;;;;;;;5282481;28;20423;-80
2022/11/05 12:01:18;;;;;;;7.45;3.42;;;;;;;;;;5280933;28;20086;-79
2022/11/05 12:03:52;;;;;;;7.55;4.20;;;;;;;;;;5284318;28;20108;-79
2022/11/05 12:06:26;;;;;;;6.35;3.95;;;;;;;;;;5266279;28;20111;-80
2022/11/05 12:09:10;;;;;;;8.02;3.67;;;;;;;;;;5284373;28;20037;-79
2022/11/05 12:11:45;;;;;;;10.98;4.15;;;;;;;;;;5266893;28;20106;-79
2022/11/05 12:14:27;;;;;;;7.43;3.63;;;;;;;;;;5284937;28;20028;-79
2022/11/05 12:17:10;;;;;;;7.80;3.67;;;;;;;;;;5284475;28;20035;-79
2022/11/05 12:19:47;;;;;;;6.00;3.83;;;;;;;;;;5287238;28;20032;-79
2022/11/05 12:22:37;;;;;;;5.53;3.28;;;;;;;;;;5289088;28;20036;-79
2022/11/05 12:25:17;;;;;;;15.05;4.95;;;;;;;;;;5282449;28;20111;-79
2022/11/05 12:28:03;;;;;;;7.57;3.47;;;;;;;;;;5292139;28;20107;-79
2022/11/05 12:31:01;;;;;;;7.70;3.80;;;;;;;;;;5276484;28;20029;-78
2022/11/05 12:33:35;;;;;;;9.32;3.70;;;;;;;;;;5238782;28;20045;-78
2022/11/05 12:36:13;;;;;;;5.72;3.70;;;;;;;;;;5279647;28;20049;-78
2022/11/05 12:38:53;;;;;;;8.48;4.40;;;;;;;;;;5272904;28;20500;-78
2022/11/05 12:41:28;;;;;;;7.68;4.15;;;;;;;;;;5277941;28;20060;-78
2022/11/05 12:44:14;;;;;;;7.85;3.88;;;;;;;;;;5273134;28;20402;-78
2022/11/05 12:46:51;;;;;;;7.93;3.75;;;;;;;;;;5275551;28;20128;-78
2022/11/05 12:49:31;;;;;;;9.13;3.90;;;;;;;;;;5278862;28;20094;-78
2022/11/05 12:52:18;;;;;;;8.63;3.88;;;;;;;;;;5274981;28;20816;-78
2022/11/05 12:54:58;;;;;;;7.00;3.33;;;;;;;;;;5275158;28;20426;-78
2022/11/05 12:57:30;;;;;;;7.25;3.80;;;;;;;;;;5277380;28;20370;-78
2022/11/05 13:00:07;;;;;;;11.30;3.75;;;;;;;;;;5277649;28;20096;-78
2022/11/05 13:02:44;;;;;;;7.25;2.95;;;;;;;;;;5278745;28;20025;-78
2022/11/05 13:05:22;;;;;;;9.55;3.40;;;;;;;;;;5275092;28;20420;-78
2022/11/05 13:07:58;;;;;;;7.72;3.00;;;;;;;;;;5277671;28;20037;-80
2022/11/05 13:10:32;;;;;;;5.88;3.08;;;;;;;;;;5274901;28;20386;-79
2022/11/05 13:13:06;;;;;;;4.72;2.70;;;;;;;;;;5274581;28;20112;-79
2022/11/05 13:15:38;;;;;;;4.07;2.78;;;;;;;;;;5275716;28;20063;-79
2022/11/05 13:18:12;;;;;;;5.50;2.63;;;;;;;;;;5279153;28;20094;-78
2022/11/05 13:20:47;;;;;;;9.20;3.38;;;;;;;;;;5276624;28;20423;-79
2022/11/05 13:23:31;;;;;;;3.47;2.13;;;;;;;;;;5273330;28;20032;-79
2022/11/05 13:26:05;;;;;;;8.35;2.78;;;;;;;;;;5274455;28;20418;-78
2022/11/05 13:28:37;;;;;;;5.82;2.60;;;;;;;;;;5273738;28;20432;-78
2022/11/05 13:31:10;;;;;;;5.97;2.70;;;;;;;;;;5278117;28;20061;-78
2022/11/05 13:33:43;;;;;;;7.07;2.50;;;;;;;;;;5274578;28;20033;-79
2022/11/05 13:39:30;;;;;;;6.40;2.90;;;;;;;;;;5275103;28;20025;-78
2022/11/05 13:42:04;;;;;;;5.45;2.38;;;;;;;;;;5275647;28;20041;-79
2022/11/05 13:44:39;;;;;;;6.72;2.85;;;;;;;;;;5276305;28;20032;-78
2022/11/05 13:47:28;;;;;;;6.75;2.72;;;;;;;;;;5276824;28;20099;-79
2022/11/05 13:50:18;;;;;;;4.85;2.40;;;;;;;;;;5272720;28;20068;-78
2022/11/05 13:52:52;;;;;;;5.28;2.70;;;;;;;;;;5273938;28;20429;-79
2022/11/05 13:55:36;;;;;;;4.93;2.75;;;;;;;;;;5276432;28;20037;-79
2022/11/05 13:58:16;;;;;;;6.30;3.17;;;;;;;;;;5273343;28;20044;-78
2022/11/05 14:01:00;;;;;;;6.32;2.97;;;;;;;;;;5268833;28;20029;-78
2022/11/05 14:03:31;;;;;;;7.63;3.10;;;;;;;;;;5276141;28;20606;-78
2022/11/05 14:06:05;;;;;;;8.43;3.47;;;;;;;;;;5259305;28;20025;-78
2022/11/05 14:08:42;;;;;;;6.45;3.13;;;;;;;;;;5259510;28;20370;-78
2022/11/05 14:11:13;;;;;;;6.55;2.72;;;;;;;;;;5282370;28;20044;-79
2022/11/05 14:13:45;;;;;;;7.77;3.97;;;;;;;;;;5293088;28;20063;-80
2022/11/05 14:16:18;;;;;;;7.15;3.25;;;;;;;;;;5265794;28;20408;-79
2022/11/05 14:19:08;;;;;;;5.20;3.22;;;;;;;;;;5283922;28;20030;-80
2022/11/05 14:21:46;;;;;;;8.07;3.47;;;;;;;;;;5286971;28;20479;-80
2022/11/05 14:24:20;;;;;;;9.43;3.97;;;;;;;;;;5279246;28;20037;-79
2022/11/05 14:27:00;;;;;;;7.97;3.30;;;;;;;;;;5281550;28;20844;-79
2022/11/05 14:29:36;;;;;;;8.73;3.70;;;;;;;;;;5271911;28;20558;-79
2022/11/05 14:32:16;;;;;;;6.50;3.40;;;;;;;;;;5281088;28;20170;-79
2022/11/05 14:35:08;;;;;;;10.30;3.38;;;;;;;;;;5277205;28;20047;-80
2022/11/05 14:37:40;;;;;;;7.60;3.45;;;;;;;;;;5265853;28;20482;-79
2022/11/05 14:40:20;;;;;;;9.68;3.60;;;;;;;;;;5279418;28;20059;-79
2022/11/05 14:42:53;;;;;;;6.72;3.22;;;;;;;;;;5277916;28;20037;-80
2022/11/05 14:45:29;;;;;;;7.95;4.00;;;;;;;;;;5280148;28;20056;-80
2022/11/05 14:48:05;;;;;;;11.45;3.65;;;;;;;;;;5277034;28;20087;-79
2022/11/05 14:50:38;;;;;;;9.95;3.83;;;;;;;;;;5281149;28;20032;-79
2022/11/05 14:53:25;;;;;;;6.03;3.30;;;;;;;;;;5277340;28;20029;-80
2022/11/05 14:56:02;;;;;;;8.50;3.83;;;;;;;;;;5279166;28;20033;-80
2022/11/05 14:58:40;;;;;;;8.02;3.97;;;;;;;;;;5276475;28;20029;-80
2022/11/05 15:01:14;;;;;;;6.65;3.85;;;;;;;;;;5277637;28;20033;-80
2022/11/05 15:03:59;;;;;;;6.20;3.08;;;;;;;;;;5281507;28;20040;-79
2022/11/05 15:06:34;;;;;;;8.65;3.65;;;;;;;;;;5268660;28;20466;-78
2022/11/05 15:09:14;;;;;;;6.25;3.35;;;;;;;;;;5281719;28;20720;-79
2022/11/05 15:11:50;;;;;;;10.98;3.65;;;;;;;;;;5283712;28;20055;-79
2022/11/05 15:14:25;;;;;;;11.40;4.00;;;;;;;;;;5281387;28;20469;-79
2022/11/05 15:17:17;;;;;;;7.45;3.25;;;;;;;;;;5283733;28;20444;-80
2022/11/05 15:19:49;;;;;;;6.15;3.30;;;;;;;;;;5251055;28;20150;-79
2022/11/05 15:22:24;;;;;;;8.65;3.55;;;;;;;;;;5273314;28;20025;-79
2022/11/05 15:24:56;;;;;;;7.43;3.28;;;;;;;;;;5273221;28;20025;-79
2022/11/05 15:27:27;;;;;;;7.40;3.90;;;;;;;;;;5281666;28;20032;-79
2022/11/05 15:30:03;;;;;;;5.88;2.90;;;;;;;;;;5285109;28;20493;-80
2022/11/05 15:32:34;;;;;;;7.22;3.22;;;;;;;;;;5283686;28;20497;-79
2022/11/05 15:35:16;;;;;;;8.67;4.20;;;;;;;;;;5284647;28;20029;-79
2022/11/05 15:37:48;;;;;;;8.68;3.40;;;;;;;;;;5265798;28;20264;-79
2022/11/05 15:40:21;;;;;;;6.78;3.17;;;;;;;;;;5283911;28;20098;-79
2022/11/05 15:43:11;;;;;;;6.80;3.47;;;;;;;;;;5284482;28;20127;-78
2022/11/05 15:45:42;;;;;;;6.43;3.45;;;;;;;;;;5284279;28;20025;-80
2022/11/05 15:48:17;;;;;;;9.57;3.58;;;;;;;;;;5283270;28;20045;-80
2022/11/05 15:50:48;;;;;;;7.38;3.80;;;;;;;;;;5264787;28;20469;-79
2022/11/05 15:53:33;;;;;;;6.57;3.20;;;;;;;;;;5284696;28;20025;-78
2022/11/05 15:56:06;;;;;;;9.07;3.67;;;;;;;;;;5283977;28;20067;-79